createdAt,value
2023-04-12T00:03:36.605Z,79.47
2023-04-12T00:06:07.381Z,79.45
2023-04-12T00:08:37.406Z,79.64
2023-04-12T00:11:06.341Z,79.65
2023-04-12T00:13:35.473Z,79.64
2023-04-12T00:16:05.508Z,79.64
2023-04-12T00:18:33.712Z,79.67
2023-04-12T00:21:02.473Z,79.70
2023-04-12T00:23:31.334Z,79.92
2023-04-12T00:25:59.957Z,80.17
2023-04-12T00:28:28.725Z,80.56
2023-04-12T00:30:58.479Z,80.72
2023-04-12T00:33:27.399Z,80.91
2023-04-12T00:35:56.229Z,80.99
2023-04-12T00:38:25.281Z,81.03
2023-04-12T00:40:53.817Z,81.30
2023-04-12T00:43:22.677Z,81.44
2023-04-12T00:45:51.539Z,81.55
2023-04-12T00:48:20.950Z,81.51
2023-04-12T00:50:50.046Z,81.48
2023-04-12T00:53:19.254Z,81.25
2023-04-12T00:55:50.373Z,81.23
2023-04-12T00:58:20.275Z,81.35
2023-04-12T01:00:49.208Z,81.49
2023-04-12T01:03:22.369Z,81.52
2023-04-12T01:05:55.988Z,81.48
2023-04-12T01:08:24.158Z,81.54
2023-04-12T01:11:05.802Z,81.64
2023-04-12T01:13:59.712Z,81.84
2023-04-12T01:16:36.128Z,81.98
2023-04-12T01:19:18.564Z,82.09
2023-04-12T01:22:02.275Z,81.98
2023-04-12T01:24:55.640Z,81.90
2023-04-12T01:27:53.514Z,81.91
2023-04-12T01:30:26.823Z,81.83
2023-04-12T01:32:59.808Z,81.63
2023-04-12T01:35:34.967Z,81.61
2023-04-12T01:38:04.680Z,81.72
2023-04-12T01:40:36.211Z,81.61
2023-04-12T01:43:05.178Z,81.55
2023-04-12T01:45:34.785Z,81.54
2023-04-12T01:48:06.400Z,81.49
2023-04-12T01:50:38.324Z,81.43
2023-04-12T01:53:14.604Z,81.05
2023-04-12T01:55:45.536Z,80.94
2023-04-12T01:58:17.732Z,80.42
2023-04-12T02:00:47.064Z,80.33
2023-04-12T02:03:15.710Z,80.24
2023-04-12T02:05:45.339Z,80.30
2023-04-12T02:08:14.435Z,80.56
2023-04-12T02:10:44.403Z,80.80
2023-04-12T02:13:13.207Z,81.04
2023-04-12T02:15:41.329Z,81.50
2023-04-12T02:18:10.750Z,81.80
2023-04-12T02:20:39.832Z,81.78
2023-04-12T02:23:08.004Z,82.09
2023-04-12T02:25:36.449Z,82.14
2023-04-12T02:28:05.556Z,82.18
2023-04-12T02:30:33.867Z,82.37
2023-04-12T02:33:02.578Z,82.35
2023-04-12T02:35:33.636Z,82.42
2023-04-12T02:38:03.009Z,82.42
2023-04-12T02:40:31.578Z,82.40
2023-04-12T02:43:00.951Z,82.67
2023-04-12T02:45:29.573Z,82.79
2023-04-12T02:47:57.978Z,82.89
2023-04-12T02:50:26.758Z,82.96
2023-04-12T02:52:55.436Z,82.95
2023-04-12T02:55:23.601Z,82.88
2023-04-12T02:57:51.794Z,82.85
2023-04-12T03:00:20.534Z,83.02
2023-04-12T03:02:50.165Z,82.90
2023-04-12T03:05:22.772Z,82.86
2023-04-12T03:07:51.364Z,82.96
2023-04-12T03:10:19.529Z,83.27
2023-04-12T03:12:48.310Z,83.24
2023-04-12T03:15:16.462Z,83.07
2023-04-12T03:17:44.821Z,82.68
2023-04-12T03:20:13.884Z,82.41
2023-04-12T03:22:42.080Z,82.22
2023-04-12T03:25:10.558Z,82.39
2023-04-12T03:27:38.756Z,82.73
2023-04-12T03:30:08.697Z,82.47
2023-04-12T03:32:36.873Z,82.45
2023-04-12T03:35:06.263Z,82.47
2023-04-12T03:37:35.176Z,82.53
2023-04-12T03:40:03.582Z,82.61
2023-04-12T03:42:33.764Z,82.57
2023-04-12T03:45:03.105Z,82.63
2023-04-12T03:47:32.153Z,82.56
2023-04-12T03:50:11.631Z,82.58
2023-04-12T03:52:41.003Z,82.80
2023-04-12T03:55:09.360Z,82.66
2023-04-12T03:57:37.565Z,82.57
2023-04-12T04:00:07.525Z,82.62
2023-04-12T04:02:36.453Z,82.73
2023-04-12T04:05:06.042Z,82.84
2023-04-12T04:07:34.164Z,82.74
2023-04-12T04:10:03.068Z,82.64
2023-04-12T04:12:31.684Z,82.58
2023-04-12T04:14:59.873Z,82.57
2023-04-12T04:17:28.441Z,82.46
2023-04-12T04:19:57.077Z,82.61
2023-04-12T04:22:25.648Z,82.54
2023-04-12T04:24:54.634Z,82.61
2023-04-12T04:27:23.593Z,82.67
2023-04-12T04:29:52.789Z,82.77
2023-04-12T04:32:21.566Z,82.85
2023-04-12T04:34:50.362Z,82.89
2023-04-12T04:37:19.134Z,82.83
2023-04-12T04:39:47.942Z,82.83
2023-04-12T04:42:17.471Z,82.74
2023-04-12T04:44:46.722Z,82.74
2023-04-12T04:47:14.769Z,82.91
2023-04-12T04:49:45.207Z,82.92
2023-04-12T04:52:14.643Z,83.10
2023-04-12T04:54:43.251Z,82.95
2023-04-12T04:57:11.397Z,82.83
2023-04-12T04:59:39.503Z,82.55
2023-04-12T05:02:08.614Z,82.08
2023-04-12T05:04:37.970Z,81.32
2023-04-12T05:07:06.129Z,80.05
2023-04-12T05:09:34.709Z,79.06
2023-04-12T05:12:03.095Z,78.36
2023-04-12T05:14:45.476Z,77.83
2023-04-12T05:17:15.774Z,77.57
2023-04-12T05:19:44.069Z,76.80
2023-04-12T05:22:12.962Z,74.98
2023-04-12T05:24:41.677Z,74.90
2023-04-12T05:27:09.789Z,74.30
2023-04-12T05:29:38.371Z,73.62
2023-04-12T05:32:06.809Z,72.97
2023-04-12T05:34:35.101Z,72.34
2023-04-12T05:37:04.616Z,72.07
2023-04-12T05:39:33.974Z,71.67
2023-04-12T05:42:02.556Z,71.86
2023-04-12T05:44:31.146Z,71.24
2023-04-12T05:46:59.730Z,70.94
2023-04-12T05:49:30.457Z,70.25
2023-04-12T05:51:59.126Z,69.42
2023-04-12T05:54:27.637Z,69.25
2023-04-12T05:56:56.225Z,69.57
2023-04-12T05:59:24.868Z,69.88
2023-04-12T06:01:54.080Z,69.26
2023-04-12T06:04:22.846Z,69.41
2023-04-12T06:06:52.214Z,69.69
2023-04-12T06:09:21.154Z,69.62
2023-04-12T06:11:49.454Z,69.29
2023-04-12T06:14:18.091Z,69.09
2023-04-12T06:16:46.954Z,68.36
2023-04-12T06:19:16.031Z,69.18
2023-04-12T06:21:44.763Z,68.54
2023-04-12T06:24:13.144Z,66.96
2023-04-12T06:26:42.553Z,65.66
2023-04-12T06:29:10.715Z,64.97
2023-04-12T06:31:40.408Z,63.83
2023-04-12T06:34:09.804Z,61.65
2023-04-12T06:36:38.194Z,60.58
2023-04-12T06:39:07.411Z,59.90
2023-04-12T06:41:35.953Z,59.39
2023-04-12T06:44:04.225Z,58.22
2023-04-12T06:46:33.179Z,57.02
2023-04-12T06:49:01.742Z,56.60
2023-04-12T06:51:31.135Z,55.65
2023-04-12T06:54:00.077Z,55.32
2023-04-12T06:56:28.734Z,54.70
2023-04-12T06:58:57.044Z,55.30
2023-04-12T07:01:26.467Z,55.35
2023-04-12T07:03:54.785Z,54.03
2023-04-12T07:06:26.115Z,53.99
2023-04-12T07:08:55.008Z,55.18
2023-04-12T07:11:23.756Z,55.34
2023-04-12T07:13:53.175Z,54.33
2023-04-12T07:16:21.662Z,52.74
2023-04-12T07:18:49.988Z,50.55
2023-04-12T07:21:18.955Z,48.01
2023-04-12T07:23:51.947Z,45.64
2023-04-12T07:26:20.496Z,43.45
2023-04-12T07:28:49.197Z,42.01
2023-04-12T07:31:17.803Z,41.89
2023-04-12T07:33:46.684Z,44.68
2023-04-12T07:36:16.540Z,46.76
2023-04-12T07:38:45.832Z,47.33
2023-04-12T07:41:14.636Z,47.69
2023-04-12T07:43:43.138Z,46.82
2023-04-12T07:46:12.855Z,45.22
2023-04-12T07:48:41.419Z,44.66
2023-04-12T07:51:10.513Z,44.64
2023-04-12T07:53:39.320Z,45.11
2023-04-12T07:56:08.610Z,45.51
2023-04-12T07:58:36.668Z,45.07
2023-04-12T08:01:06.253Z,45.19
2023-04-12T08:03:35.603Z,45.60
2023-04-12T08:06:05.938Z,45.68
2023-04-12T08:08:35.139Z,45.17
2023-04-12T08:11:04.422Z,45.63
2023-04-12T08:13:34.595Z,45.75
2023-04-12T08:16:03.350Z,45.35
2023-04-12T08:18:31.743Z,45.63
2023-04-12T08:20:59.829Z,45.55
2023-04-12T08:23:29.958Z,45.69
2023-04-12T08:25:58.121Z,46.27
2023-04-12T08:28:26.439Z,46.70
2023-04-12T08:30:54.677Z,46.73
2023-04-12T08:33:23.356Z,44.99
2023-04-12T08:35:52.108Z,43.70
2023-04-12T08:38:25.416Z,41.77
2023-04-12T08:40:59.990Z,41.64
2023-04-12T08:43:29.905Z,41.35
2023-04-12T08:45:59.459Z,42.19
2023-04-12T08:48:28.502Z,42.85
2023-04-12T08:50:57.629Z,43.39
2023-04-12T08:53:27.428Z,43.98
2023-04-12T08:55:56.286Z,43.14
2023-04-12T08:58:25.542Z,43.13
2023-04-12T09:00:54.665Z,44.23
2023-04-12T09:03:23.553Z,46.03
2023-04-12T09:05:52.362Z,46.96
2023-04-12T09:08:20.988Z,47.18
2023-04-12T09:10:49.537Z,47.82
2023-04-12T09:13:32.284Z,47.47
2023-04-12T09:16:02.304Z,47.23
2023-04-12T09:18:49.176Z,47.18
2023-04-12T09:21:18.659Z,47.41
2023-04-12T09:24:13.371Z,47.90
2023-04-12T09:26:43.056Z,47.09
2023-04-12T09:29:24.718Z,46.28
2023-04-12T09:32:03.093Z,45.63
2023-04-12T09:34:33.716Z,46.49
2023-04-12T09:37:16.238Z,47.46
2023-04-12T09:39:45.123Z,48.27
2023-04-12T09:42:29.835Z,48.78
2023-04-12T09:45:02.047Z,48.72
2023-04-12T09:47:40.700Z,49.08
2023-04-12T09:50:10.237Z,49.51
2023-04-12T09:52:39.551Z,50.14
2023-04-12T09:55:12.674Z,50.23
2023-04-12T09:57:45.110Z,50.09
2023-04-12T10:00:14.959Z,48.97
2023-04-12T10:02:47.701Z,49.49
2023-04-12T10:05:24.531Z,49.64
2023-04-12T10:07:54.963Z,50.25
2023-04-12T10:10:24.108Z,50.14
2023-04-12T10:12:54.107Z,49.61
2023-04-12T10:15:22.278Z,49.65
2023-04-12T10:17:53.368Z,50.29
2023-04-12T10:20:24.869Z,50.68
2023-04-12T10:22:57.277Z,50.79
2023-04-12T10:25:27.572Z,51.59
2023-04-12T10:27:56.801Z,52.95
2023-04-12T10:30:26.525Z,54.52
2023-04-12T10:33:04.613Z,56.07
2023-04-12T10:36:01.279Z,56.78
2023-04-12T10:38:44.766Z,57.00
2023-04-12T10:41:20.865Z,57.59
2023-04-12T10:43:51.421Z,57.98
2023-04-12T10:46:45.984Z,58.43
2023-04-12T10:49:15.690Z,58.59
2023-04-12T10:52:12.507Z,58.87
2023-04-12T10:54:41.175Z,58.97
2023-04-12T10:57:45.526Z,59.06
2023-04-12T11:00:15.035Z,59.44
2023-04-12T11:03:08.850Z,59.77
2023-04-12T11:05:57.421Z,60.24
2023-04-12T11:08:27.416Z,60.58
2023-04-12T11:11:03.230Z,60.51
2023-04-12T11:13:39.443Z,60.25
2023-04-12T11:16:08.362Z,60.25
2023-04-12T11:18:37.383Z,60.19
2023-04-12T11:21:06.600Z,60.26
2023-04-12T11:23:35.598Z,59.83
2023-04-12T11:26:04.396Z,58.43
2023-04-12T11:28:34.744Z,58.16
2023-04-12T11:31:04.246Z,56.34
2023-04-12T11:33:39.629Z,57.67
2023-04-12T11:36:11.684Z,56.99
2023-04-12T11:38:40.529Z,56.61
2023-04-12T11:41:09.562Z,53.82
2023-04-12T11:43:38.766Z,51.63
2023-04-12T11:46:08.004Z,52.68
2023-04-12T11:48:36.858Z,54.28
2023-04-12T11:51:22.318Z,54.66
2023-04-12T11:53:55.456Z,54.45
2023-04-12T11:56:24.638Z,55.12
2023-04-12T11:58:52.658Z,55.99
2023-04-12T12:01:23.019Z,56.44
2023-04-12T12:03:52.024Z,56.93
2023-04-12T12:06:21.775Z,57.42
2023-04-12T12:08:51.426Z,57.34
2023-04-12T12:11:23.820Z,57.66
2023-04-12T12:13:54.613Z,57.29
2023-04-12T12:16:27.855Z,56.54
2023-04-12T12:18:57.970Z,56.50
2023-04-12T12:21:26.481Z,56.43
2023-04-12T12:23:57.139Z,56.26
2023-04-12T12:26:27.941Z,55.69
2023-04-12T12:28:58.257Z,55.52
2023-04-12T12:31:28.381Z,55.43
2023-04-12T12:33:59.460Z,55.33
2023-04-12T12:36:33.483Z,55.16
2023-04-12T12:39:13.073Z,55.75
2023-04-12T12:41:42.438Z,56.13
2023-04-12T12:44:11.749Z,56.87
2023-04-12T12:46:53.471Z,56.43
2023-04-12T12:49:23.583Z,56.22
2023-04-12T12:51:52.554Z,55.52
2023-04-12T12:54:38.644Z,55.37
2023-04-12T12:57:11.139Z,56.18
2023-04-12T12:59:42.897Z,56.64
2023-04-12T13:02:11.371Z,57.08
2023-04-12T13:04:40.319Z,56.90
2023-04-12T13:07:08.526Z,57.02
2023-04-12T13:09:36.717Z,56.70
2023-04-12T13:12:05.207Z,56.47
2023-04-12T13:14:33.463Z,56.47
2023-04-12T13:17:02.364Z,55.82
2023-04-12T13:19:30.874Z,55.24
2023-04-12T13:21:59.707Z,55.50
2023-04-12T13:24:28.457Z,56.53
2023-04-12T13:26:56.962Z,56.55
2023-04-12T13:29:25.627Z,56.68
2023-04-12T13:31:55.153Z,56.99
2023-04-12T13:34:23.851Z,57.00
2023-04-12T13:36:52.062Z,56.87
2023-04-12T13:39:21.306Z,56.80
2023-04-12T13:41:49.447Z,56.26
2023-04-12T13:44:18.015Z,55.98
2023-04-12T13:46:47.013Z,55.02
2023-04-12T13:49:15.702Z,55.39
2023-04-12T13:51:44.389Z,55.99
2023-04-12T13:54:12.774Z,56.24
2023-04-12T13:56:41.046Z,56.25
2023-04-12T13:59:09.764Z,56.20
2023-04-12T14:01:40.101Z,56.36
2023-04-12T14:04:09.036Z,54.84
2023-04-12T14:06:39.095Z,53.64
2023-04-12T14:09:07.749Z,53.45
2023-04-12T14:11:47.406Z,52.83
2023-04-12T14:14:16.802Z,52.73
2023-04-12T14:16:46.687Z,52.65
2023-04-12T14:19:16.504Z,52.59
2023-04-12T14:21:45.660Z,52.68
2023-04-12T14:24:19.122Z,51.20
2023-04-12T14:26:48.421Z,49.74
2023-04-12T14:29:17.251Z,47.26
2023-04-12T14:31:46.921Z,42.52
2023-04-12T14:34:15.332Z,43.64
2023-04-12T14:36:43.970Z,44.23
2023-04-12T14:39:14.053Z,44.44
2023-04-12T14:41:43.328Z,45.41
2023-04-12T14:44:12.027Z,45.07
2023-04-12T14:46:40.860Z,43.42
2023-04-12T14:49:09.124Z,42.70
2023-04-12T14:51:37.805Z,42.64
2023-04-12T14:54:07.193Z,43.48
2023-04-12T14:56:44.574Z,45.00
2023-04-12T14:59:19.352Z,46.15
2023-04-12T15:01:48.050Z,46.40
2023-04-12T15:04:17.170Z,46.14
2023-04-12T15:06:45.646Z,46.57
2023-04-12T15:09:14.712Z,46.94
2023-04-12T15:11:43.853Z,46.59
2023-04-12T15:14:15.219Z,46.74
2023-04-12T15:16:45.837Z,47.51
2023-04-12T15:19:20.212Z,47.81
2023-04-12T15:21:53.250Z,48.25
2023-04-12T15:24:22.753Z,48.16
2023-04-12T15:26:52.856Z,48.53
2023-04-12T15:29:21.670Z,48.89
2023-04-12T15:31:50.529Z,49.05
2023-04-12T15:34:19.360Z,50.32
2023-04-12T15:36:49.217Z,51.20
2023-04-12T15:39:19.604Z,51.41
2023-04-12T15:41:48.273Z,52.12
2023-04-12T15:44:16.659Z,52.67
2023-04-12T15:46:53.289Z,53.24
2023-04-12T15:49:28.766Z,53.69
2023-04-12T15:51:56.995Z,53.80
2023-04-12T15:54:26.320Z,53.86
2023-04-12T15:56:55.002Z,53.93
2023-04-12T15:59:23.706Z,53.86
2023-04-12T16:01:53.165Z,53.87
2023-04-12T16:04:22.784Z,53.71
2023-04-12T16:06:51.337Z,53.48
2023-04-12T16:09:20.824Z,53.71
2023-04-12T16:11:50.166Z,53.85
2023-04-12T16:14:20.091Z,53.94
2023-04-12T16:16:48.758Z,53.98
2023-04-12T16:19:18.554Z,53.82
2023-04-12T16:21:47.645Z,53.45
2023-04-12T16:24:16.551Z,53.56
2023-04-12T16:26:45.387Z,53.55
2023-04-12T16:29:14.693Z,53.38
2023-04-12T16:31:43.417Z,53.31
2023-04-12T16:34:12.345Z,53.15
2023-04-12T16:36:41.816Z,53.00
2023-04-12T16:39:10.560Z,53.36
2023-04-12T16:41:40.012Z,55.27
2023-04-12T16:44:09.002Z,56.20
2023-04-12T16:46:38.545Z,56.51
2023-04-12T16:49:06.873Z,57.14
2023-04-12T16:51:37.513Z,57.78
2023-04-12T16:54:06.315Z,58.03
2023-04-12T16:56:34.898Z,58.52
2023-04-12T16:59:03.876Z,58.98
2023-04-12T17:01:31.923Z,59.63
2023-04-12T17:04:01.734Z,59.68
2023-04-12T17:06:31.495Z,59.84
2023-04-12T17:09:00.635Z,60.09
2023-04-12T17:11:28.887Z,60.63
2023-04-12T17:13:57.811Z,60.85
2023-04-12T17:16:26.355Z,61.21
2023-04-12T17:18:55.001Z,61.53
2023-04-12T17:21:24.287Z,61.62
2023-04-12T17:23:53.648Z,61.65
2023-04-12T17:26:23.108Z,62.01
2023-04-12T17:28:52.236Z,61.94
2023-04-12T17:31:21.922Z,62.29
2023-04-12T17:33:50.759Z,62.79
2023-04-12T17:36:20.839Z,62.90
2023-04-12T17:38:49.513Z,63.14
2023-04-12T17:41:17.902Z,63.19
2023-04-12T17:43:47.265Z,63.56
2023-04-12T17:46:16.106Z,63.76
2023-04-12T17:48:44.431Z,63.80
2023-04-12T17:51:13.492Z,63.65
2023-04-12T17:53:42.603Z,63.82
2023-04-12T17:56:11.533Z,64.14
2023-04-12T17:58:39.850Z,64.29
2023-04-12T18:01:08.534Z,64.23
2023-04-12T18:03:40.298Z,64.05
2023-04-12T18:06:08.724Z,61.62
2023-04-12T18:08:37.719Z,59.08
2023-04-12T18:11:07.175Z,57.60
2023-04-12T18:13:35.250Z,56.75
2023-04-12T18:16:04.640Z,55.62
2023-04-12T18:18:34.191Z,52.18
2023-04-12T18:21:04.774Z,49.85
2023-04-12T18:23:34.141Z,47.98
2023-04-12T18:26:05.528Z,44.87
2023-04-12T18:28:34.543Z,43.10
2023-04-12T18:31:02.696Z,39.42
2023-04-12T18:33:32.080Z,35.52
2023-04-12T18:36:00.786Z,33.67
2023-04-12T18:38:29.018Z,32.21
2023-04-12T18:40:57.213Z,30.69
2023-04-12T18:43:26.031Z,28.94
2023-04-12T18:45:55.160Z,28.09
2023-04-12T18:48:23.998Z,28.19
2023-04-12T18:50:52.773Z,27.82
2023-04-12T18:53:20.921Z,27.16
2023-04-12T18:55:49.138Z,26.15
2023-04-12T18:58:17.329Z,27.05
2023-04-12T19:00:45.626Z,26.59
2023-04-12T19:03:14.193Z,26.64
2023-04-12T19:05:44.100Z,26.30
2023-04-12T19:08:12.728Z,26.25
2023-04-12T19:10:41.732Z,27.05
2023-04-12T19:13:10.436Z,26.79
2023-04-12T19:15:38.758Z,27.51
2023-04-12T19:18:07.499Z,27.54
2023-04-12T19:20:36.271Z,27.42
2023-04-12T19:23:06.618Z,26.88
2023-04-12T19:25:35.378Z,26.91
2023-04-12T19:28:04.313Z,27.23
2023-04-12T19:30:33.623Z,26.87
2023-04-12T19:33:02.070Z,26.41
2023-04-12T19:35:32.277Z,26.27
2023-04-12T19:38:04.747Z,26.05
2023-04-12T19:40:33.517Z,25.81
2023-04-12T19:43:01.823Z,26.53
2023-04-12T19:45:30.207Z,26.37
2023-04-12T19:47:58.995Z,26.89
2023-04-12T19:50:27.372Z,26.16
2023-04-12T19:52:56.352Z,26.38
2023-04-12T19:55:25.337Z,26.45
2023-04-12T19:57:54.626Z,25.87
2023-04-12T20:00:23.366Z,26.07
2023-04-12T20:02:54.623Z,25.62
2023-04-12T20:05:23.974Z,25.60
2023-04-12T20:07:52.874Z,26.35
2023-04-12T20:10:23.030Z,26.29
2023-04-12T20:12:51.287Z,26.44
2023-04-12T20:15:20.774Z,26.59
2023-04-12T20:17:50.234Z,26.55
2023-04-12T20:20:19.207Z,26.60
2023-04-12T20:22:48.910Z,26.61
2023-04-12T20:25:18.695Z,26.21
2023-04-12T20:27:47.922Z,26.36
2023-04-12T20:30:16.603Z,26.53
2023-04-12T20:32:45.293Z,26.84
2023-04-12T20:35:13.844Z,26.41
2023-04-12T20:37:42.638Z,26.66
2023-04-12T20:40:12.014Z,26.51
2023-04-12T20:42:40.630Z,26.53
2023-04-12T20:45:09.717Z,26.54
2023-04-12T20:47:38.321Z,26.46
2023-04-12T20:50:07.545Z,26.38
2023-04-12T20:52:37.145Z,25.88
2023-04-12T20:55:06.715Z,26.09
2023-04-12T20:57:35.301Z,26.38
2023-04-12T21:00:03.913Z,26.12
2023-04-12T21:02:33.849Z,26.42
2023-04-12T21:05:02.079Z,26.17
2023-04-12T21:07:30.885Z,26.24
2023-04-12T21:10:00.607Z,26.73
2023-04-12T21:12:29.290Z,26.42
2023-04-12T21:14:57.635Z,26.43
2023-04-12T21:17:26.667Z,26.71
2023-04-12T21:19:55.581Z,26.74
2023-04-12T21:22:24.489Z,26.85
2023-04-12T21:24:53.264Z,26.53
2023-04-12T21:27:21.274Z,27.14
2023-04-12T21:29:49.602Z,26.44
2023-04-12T21:32:18.299Z,26.95
2023-04-12T21:34:47.448Z,27.16
2023-04-12T21:37:16.197Z,27.35
2023-04-12T21:39:44.766Z,27.44
2023-04-12T21:42:13.830Z,27.54
2023-04-12T21:44:42.444Z,27.73
2023-04-12T21:47:11.026Z,28.03
2023-04-12T21:49:39.594Z,27.98
2023-04-12T21:52:08.872Z,28.58
2023-04-12T21:54:37.274Z,29.20
2023-04-12T21:57:05.992Z,29.11
2023-04-12T21:59:34.760Z,28.55
2023-04-12T22:02:04.729Z,28.58
2023-04-12T22:04:33.777Z,28.18
2023-04-12T22:07:03.162Z,28.19
2023-04-12T22:09:31.952Z,27.90
2023-04-12T22:12:01.678Z,28.23
2023-04-12T22:14:30.720Z,28.36
2023-04-12T22:16:59.216Z,28.30
2023-04-12T22:19:27.939Z,28.51
2023-04-12T22:21:56.243Z,28.70
2023-04-12T22:24:25.538Z,28.76
2023-04-12T22:26:53.782Z,29.10
2023-04-12T22:29:24.480Z,29.12
2023-04-12T22:31:53.005Z,29.43
2023-04-12T22:34:22.049Z,29.37
2023-04-12T22:36:51.238Z,29.21
2023-04-12T22:39:20.848Z,29.32
2023-04-12T22:41:50.752Z,29.77
2023-04-12T22:44:23.153Z,29.85
2023-04-12T22:46:54.412Z,30.16
2023-04-12T22:49:27.564Z,30.24
2023-04-12T22:51:56.827Z,30.42
2023-04-12T22:54:26.344Z,30.52
2023-04-12T22:56:54.715Z,30.84
2023-04-12T22:59:23.067Z,30.87
2023-04-12T23:01:51.769Z,31.22
2023-04-12T23:04:20.957Z,31.27
2023-04-12T23:06:53.544Z,31.23
2023-04-12T23:09:22.499Z,31.04
2023-04-12T23:11:50.816Z,31.20
2023-04-12T23:14:20.234Z,31.48
2023-04-12T23:16:49.474Z,31.40
2023-04-12T23:19:18.067Z,31.69
2023-04-12T23:21:47.428Z,31.48
2023-04-12T23:24:16.096Z,31.63
2023-04-12T23:26:44.423Z,31.73
2023-04-12T23:29:13.692Z,31.92
2023-04-12T23:31:42.829Z,31.91
2023-04-12T23:34:11.028Z,32.20
2023-04-12T23:36:39.621Z,32.02
2023-04-12T23:39:08.632Z,32.25
2023-04-12T23:41:37.433Z,32.52
2023-04-12T23:44:05.683Z,32.72
2023-04-12T23:46:34.970Z,32.81
2023-04-12T23:49:03.191Z,32.88
2023-04-12T23:51:31.744Z,32.78
2023-04-12T23:54:01.669Z,33.23
2023-04-12T23:56:30.374Z,33.69
2023-04-12T23:58:58.717Z,34.02
